createdAt,value
2023-05-13T00:04:16.613Z,41.16
2023-05-13T00:09:22.103Z,41.10
2023-05-13T00:14:27.614Z,40.91
2023-05-13T00:19:33.364Z,40.80
2023-05-13T00:24:38.915Z,40.77
2023-05-13T00:29:44.467Z,40.76
2023-05-13T00:34:49.913Z,40.77
2023-05-13T00:39:55.419Z,40.60
2023-05-13T00:45:00.930Z,40.67
2023-05-13T00:50:07.624Z,40.76
2023-05-13T00:55:13.542Z,40.75
2023-05-13T01:00:19.994Z,40.82
2023-05-13T01:05:51.900Z,40.75
2023-05-13T01:11:00.577Z,40.87
2023-05-13T01:16:09.172Z,40.92
2023-05-13T01:21:14.694Z,40.99
2023-05-13T01:26:21.526Z,41.11
2023-05-13T01:31:28.709Z,41.17
2023-05-13T01:36:34.584Z,41.27
2023-05-13T01:41:41.058Z,41.37
2023-05-13T01:46:49.003Z,41.49
2023-05-13T01:51:55.124Z,41.51
2023-05-13T01:57:00.761Z,41.56
2023-05-13T02:02:09.211Z,41.63
2023-05-13T02:07:14.693Z,41.77
2023-05-13T02:12:22.429Z,41.99
2023-05-13T02:17:28.072Z,42.00
2023-05-13T02:22:33.840Z,42.03
2023-05-13T02:27:39.431Z,42.04
2023-05-13T02:32:45.218Z,42.34
2023-05-13T02:37:51.042Z,42.55
2023-05-13T02:42:56.764Z,42.78
2023-05-13T02:48:04.062Z,42.96
2023-05-13T02:53:09.812Z,43.17
2023-05-13T02:58:18.746Z,43.18
2023-05-13T03:03:25.744Z,43.42
2023-05-13T03:08:31.661Z,43.58
2023-05-13T03:13:37.635Z,43.63
2023-05-13T03:18:43.166Z,43.80
2023-05-13T03:23:48.930Z,43.98
2023-05-13T03:28:55.130Z,43.97
2023-05-13T03:34:01.144Z,44.10
2023-05-13T03:39:10.540Z,44.13
2023-05-13T03:44:19.667Z,44.24
2023-05-13T03:49:25.310Z,44.21
2023-05-13T03:54:44.957Z,44.17
2023-05-13T03:59:51.526Z,44.32
2023-05-13T04:04:57.308Z,44.29
2023-05-13T04:10:03.964Z,44.28
2023-05-13T04:15:11.497Z,44.31
2023-05-13T04:20:17.172Z,44.31
2023-05-13T04:25:23.958Z,44.65
2023-05-13T04:30:32.036Z,44.88
2023-05-13T04:35:40.419Z,45.12
2023-05-13T04:46:26.341Z,43.83
2023-05-13T04:51:41.630Z,41.79
2023-05-13T04:56:49.189Z,43.13
2023-05-13T05:01:56.661Z,43.28
2023-05-13T05:07:11.349Z,43.05
2023-05-13T05:19:34.105Z,42.41
2023-05-13T05:24:40.447Z,42.45
2023-05-13T05:29:47.170Z,42.25
2023-05-13T05:34:53.504Z,42.31
2023-05-13T05:39:59.007Z,42.36
2023-05-13T05:45:05.819Z,42.12
2023-05-13T05:50:13.165Z,41.90
2023-05-13T05:55:18.901Z,41.67
2023-05-13T06:00:25.057Z,41.62
2023-05-13T06:05:32.329Z,41.68
2023-05-13T06:10:38.722Z,41.63
2023-05-13T06:15:45.771Z,41.64
2023-05-13T06:20:51.265Z,41.50
2023-05-13T06:25:58.864Z,41.33
2023-05-13T06:31:05.047Z,41.02
2023-05-13T06:36:10.876Z,40.85
2023-05-13T06:41:16.381Z,41.12
2023-05-13T06:46:22.374Z,40.53
2023-05-13T06:51:28.840Z,40.50
2023-05-13T06:56:35.542Z,40.47
2023-05-13T07:01:42.420Z,40.17
2023-05-13T07:06:49.080Z,39.86
2023-05-13T07:11:54.709Z,39.29
2023-05-13T07:17:00.236Z,39.05
2023-05-13T07:22:06.122Z,38.57
2023-05-13T07:27:11.619Z,37.96
2023-05-13T07:32:17.141Z,37.71
2023-05-13T07:37:23.825Z,37.56
2023-05-13T07:42:30.095Z,37.26
2023-05-13T07:47:35.777Z,37.04
2023-05-13T07:52:42.274Z,36.74
2023-05-13T07:57:47.870Z,36.54
2023-05-13T08:02:53.586Z,35.52
2023-05-13T08:07:59.458Z,35.42
2023-05-13T08:13:04.984Z,34.94
2023-05-13T08:18:10.487Z,34.73
2023-05-13T08:23:16.252Z,34.04
2023-05-13T08:28:21.760Z,34.13
2023-05-13T08:33:27.308Z,33.83
2023-05-13T08:38:33.622Z,33.45
2023-05-13T08:43:40.407Z,33.16
2023-05-13T08:48:46.891Z,32.94
2023-05-13T08:53:54.580Z,32.53
2023-05-13T08:59:00.124Z,32.08
2023-05-13T09:04:08.677Z,31.67
2023-05-13T09:09:14.841Z,31.67
2023-05-13T09:14:20.881Z,31.48
2023-05-13T09:19:27.048Z,31.14
2023-05-13T09:24:33.758Z,30.77
2023-05-13T09:29:39.633Z,30.07
2023-05-13T09:34:48.582Z,30.11
2023-05-13T09:39:55.873Z,29.25
2023-05-13T09:45:04.360Z,29.07
2023-05-13T09:50:12.522Z,29.12
2023-05-13T09:55:18.563Z,28.97
2023-05-13T10:00:32.276Z,28.78
2023-05-13T10:05:32.667Z,28.41
2023-05-13T10:10:40.046Z,28.10
2023-05-13T10:15:50.845Z,28.55
2023-05-13T10:20:56.484Z,28.53
2023-05-13T10:26:02.887Z,27.97
2023-05-13T10:31:08.492Z,27.85
2023-05-13T10:36:50.663Z,27.05
2023-05-13T10:41:59.183Z,26.82
2023-05-13T10:47:05.334Z,26.26
2023-05-13T10:52:13.574Z,26.22
2023-05-13T10:57:22.116Z,25.65
2023-05-13T11:02:30.648Z,25.38
2023-05-13T11:07:40.468Z,25.14
2023-05-13T11:12:48.804Z,24.24
2023-05-13T11:17:55.318Z,24.73
2023-05-13T11:23:01.054Z,24.45
2023-05-13T11:28:06.778Z,24.29
2023-05-13T11:33:13.030Z,24.45
2023-05-13T11:38:24.961Z,24.56
2023-05-13T11:43:34.467Z,24.62
2023-05-13T11:48:39.934Z,24.79
2023-05-13T11:53:45.632Z,24.32
2023-05-13T11:58:51.401Z,24.54
2023-05-13T12:04:04.627Z,24.53
2023-05-13T12:09:13.363Z,24.23
2023-05-13T12:14:20.644Z,23.70
2023-05-13T12:19:26.095Z,23.84
2023-05-13T12:24:35.834Z,23.44
2023-05-13T12:29:45.178Z,23.33
2023-05-13T12:34:52.532Z,23.30
2023-05-13T12:40:01.077Z,23.14
2023-05-13T12:45:07.988Z,22.64
2023-05-13T12:50:14.515Z,22.83
2023-05-13T12:55:20.515Z,22.18
2023-05-13T13:00:27.898Z,22.68
2023-05-13T13:05:33.756Z,22.09
2023-05-13T13:10:46.298Z,22.04
2023-05-13T13:15:53.963Z,22.17
2023-05-13T13:21:00.036Z,21.37
2023-05-13T13:26:07.706Z,21.51
2023-05-13T13:31:13.404Z,21.32
2023-05-13T13:36:19.600Z,21.52
2023-05-13T13:41:25.842Z,21.33
2023-05-13T13:46:32.716Z,20.99
2023-05-13T13:51:38.332Z,21.22
2023-05-13T13:56:45.639Z,20.85
2023-05-13T14:01:51.504Z,20.88
2023-05-13T14:06:58.895Z,20.74
2023-05-13T14:12:05.230Z,20.73
2023-05-13T14:17:12.260Z,20.47
2023-05-13T14:22:18.566Z,20.76
2023-05-13T14:27:24.790Z,20.98
2023-05-13T14:32:30.508Z,20.54
2023-05-13T14:37:36.102Z,20.88
2023-05-13T14:42:41.551Z,22.41
2023-05-13T14:47:47.345Z,22.94
2023-05-13T14:52:52.940Z,22.18
2023-05-13T14:57:58.526Z,21.96
2023-05-13T15:03:04.216Z,21.53
2023-05-13T15:08:11.500Z,21.66
2023-05-13T15:13:17.088Z,21.93
2023-05-13T15:18:22.701Z,21.28
2023-05-13T15:23:28.448Z,21.32
2023-05-13T15:28:33.894Z,20.96
2023-05-13T15:33:39.493Z,20.84
2023-05-13T15:38:45.023Z,20.82
2023-05-13T15:43:51.610Z,21.29
2023-05-13T15:48:57.396Z,21.84
2023-05-13T15:54:02.916Z,22.30
2023-05-13T15:59:08.362Z,22.10
2023-05-13T16:04:14.439Z,20.27
2023-05-13T16:09:22.409Z,19.15
2023-05-13T16:14:29.556Z,18.77
2023-05-13T16:19:36.138Z,18.52
2023-05-13T16:24:41.602Z,16.60
2023-05-13T16:29:47.216Z,17.52
2023-05-13T16:34:54.048Z,16.51
2023-05-13T16:39:59.666Z,15.00
2023-05-13T16:45:05.938Z,15.74
2023-05-13T16:50:11.740Z,15.28
2023-05-13T16:55:17.783Z,15.14
2023-05-13T17:00:23.806Z,14.06
2023-05-13T17:05:30.270Z,14.84
2023-05-13T17:10:35.856Z,14.25
2023-05-13T17:15:41.367Z,13.70
2023-05-13T17:20:47.013Z,13.73
2023-05-13T17:25:52.689Z,14.15
2023-05-13T17:30:58.219Z,14.57
2023-05-13T17:36:03.826Z,14.89
2023-05-13T17:41:09.319Z,15.39
2023-05-13T17:46:14.895Z,15.77
2023-05-13T17:51:20.357Z,16.10
2023-05-13T17:56:26.262Z,16.58
2023-05-13T18:01:31.785Z,17.32
2023-05-13T18:06:37.377Z,17.83
2023-05-13T18:11:42.906Z,18.02
2023-05-13T18:16:48.564Z,18.25
2023-05-13T18:21:54.172Z,18.75
2023-05-13T18:26:59.760Z,19.51
2023-05-13T18:32:05.736Z,20.31
2023-05-13T18:37:11.253Z,21.04
2023-05-13T18:42:16.905Z,21.79
2023-05-13T18:47:22.407Z,22.61
2023-05-13T18:52:27.863Z,23.31
2023-05-13T18:57:33.470Z,24.03
2023-05-13T19:02:39.471Z,24.73
2023-05-13T19:07:45.978Z,25.37
2023-05-13T19:12:51.996Z,25.93
2023-05-13T19:17:57.696Z,26.74
2023-05-13T19:23:03.385Z,27.13
2023-05-13T19:28:09.954Z,27.93
2023-05-13T19:33:15.543Z,28.58
2023-05-13T19:38:22.224Z,29.51
2023-05-13T19:43:27.767Z,30.27
2023-05-13T19:48:33.427Z,30.98
2023-05-13T19:53:38.937Z,31.20
2023-05-13T19:58:44.386Z,31.67
2023-05-13T20:03:49.970Z,32.43
2023-05-13T20:08:56.156Z,32.75
2023-05-13T20:14:02.036Z,33.22
2023-05-13T20:19:08.520Z,33.99
2023-05-13T20:24:14.373Z,34.76
2023-05-13T20:29:19.892Z,35.18
2023-05-13T20:34:26.582Z,35.66
2023-05-13T20:39:32.466Z,36.02
2023-05-13T20:44:38.000Z,36.21
2023-05-13T20:49:46.638Z,36.86
2023-05-13T20:54:52.115Z,37.44
2023-05-13T20:59:57.643Z,38.09
2023-05-13T21:05:03.119Z,38.40
2023-05-13T21:10:09.498Z,38.71
2023-05-13T21:15:15.437Z,38.95
2023-05-13T21:20:21.808Z,39.22
2023-05-13T21:25:27.899Z,39.85
2023-05-13T21:30:33.859Z,40.15
2023-05-13T21:35:39.556Z,40.27
2023-05-13T21:40:45.437Z,40.33
2023-05-13T21:45:51.048Z,40.89
2023-05-13T21:50:56.716Z,41.02
2023-05-13T21:56:03.191Z,41.62
2023-05-13T22:01:08.791Z,41.84
2023-05-13T22:06:14.422Z,42.41
2023-05-13T22:11:19.997Z,42.28
2023-05-13T22:16:25.557Z,42.77
2023-05-13T22:21:32.531Z,43.08
2023-05-13T22:26:38.160Z,43.39
2023-05-13T22:31:43.807Z,43.61
2023-05-13T22:36:49.496Z,43.99
2023-05-13T22:41:55.793Z,44.19
2023-05-13T22:47:01.692Z,44.68
2023-05-13T22:52:07.668Z,44.75
2023-05-13T22:57:14.289Z,44.58
2023-05-13T23:02:19.959Z,45.07
2023-05-13T23:07:25.585Z,45.24
2023-05-13T23:12:31.107Z,45.28
2023-05-13T23:17:36.662Z,45.42
2023-05-13T23:22:42.236Z,45.80
2023-05-13T23:27:47.851Z,45.77
2023-05-13T23:32:53.316Z,46.17
2023-05-13T23:37:58.860Z,46.17
2023-05-13T23:43:04.324Z,45.84
2023-05-13T23:48:09.958Z,46.79
2023-05-13T23:53:16.335Z,46.92
2023-05-13T23:58:21.969Z,46.69
